This is the latest recevied weather packets stored in our database for station/object KM4KMS. If no packets are shown the sender has not sent any weather packets the latest 10 day(s).
| Time | Temp. | Humidity | Pressure | Rain* | Wind** | Luminosity | Snow |
|---|---|---|---|---|---|---|---|
| 1777855510 | 14.44° C | 52% | 1013.1 hPa | 0 mm | - | 0 W/m² | - |
| 1777855207 | 14.44° C | 53% | 1012.8 hPa | 0 mm | - | 0 W/m² | - |
| 1777854903 | 14.44° C | 52% | 1012.6 hPa | 0 mm | - | 1 W/m² | - |
| 1777854600 | 14.44° C | 52% | 1012.8 hPa | 0 mm | - | 2 W/m² | - |
| 1777854297 | 15° C | 52% | 1012.6 hPa | 0 mm | - | 6 W/m² | - |
| 1777853994 | 15° C | 51% | 1012.8 hPa | 0 mm | - | 10 W/m² | - |
| 1777853691 | 15° C | 50% | 1012.8 hPa | 0 mm | - | 13 W/m² | - |
| 1777853388 | 15.56° C | 49% | 1012.5 hPa | 0 mm | - | 18 W/m² | - |
| 1777853085 | 15.56° C | 48% | 1012.7 hPa | 0 mm | - | 23 W/m² | - |
| 1777852782 | 15.56° C | 47% | 1012.7 hPa | 0 mm | - | 27 W/m² | - |
| 1777852480 | 15.56° C | 48% | 1012.7 hPa | 0 mm | - | 32 W/m² | - |
| 1777852177 | 16.11° C | 48% | 1012.6 hPa | 0 mm | - | 34 W/m² | - |
| 1777851875 | 16.11° C | 46% | 1012.7 hPa | 0 mm | - | 42 W/m² | - |
| 1777851573 | 16.11° C | 46% | 1012.6 hPa | 0 mm | - | 48 W/m² | - |
| 1777851269 | 16.11° C | 45% | 1012.7 hPa | 0 mm | - | 49 W/m² | - |
| 1777850965 | 16.67° C | 45% | 1012.5 hPa | 0 mm | - | 68 W/m² | - |
| 1777850662 | 16.67° C | 43% | 1012.5 hPa | 0 mm | - | 87 W/m² | - |
| 1777850360 | 16.67° C | 44% | 1012.8 hPa | 0 mm | - | 98 W/m² | - |
| 1777850057 | 16.67° C | 44% | 1013 hPa | 0 mm | - | 103 W/m² | - |
| 1777849754 | 16.67° C | 44% | 1013.2 hPa | 0 mm | - | 104 W/m² | - |
| 1777849450 | 17.22° C | 42% | 1013.1 hPa | 0 mm | - | 156 W/m² | - |
| 1777849148 | 16.67° C | 43% | 1013.5 hPa | 0 mm | - | 166 W/m² | - |
| 1777848844 | 16.67° C | 44% | 1013.4 hPa | 0 mm | - | 193 W/m² | - |
| 1777848540 | 16.67° C | 44% | 1013.4 hPa | 0 mm | - | 137 W/m² | - |
| 1777848237 | 16.11° C | 44% | 1013.4 hPa | 0 mm | - | 75 W/m² | - |
* Rain latest hour (hover to see other rain measurements)
** Current wind speed in m/s (hover to see current wind gust speed)